createdAt,value
2023-06-30T00:00:23.462Z,1011.27
2023-06-30T00:01:23.464Z,1011.25
2023-06-30T00:02:23.498Z,1011.26
2023-06-30T00:03:23.486Z,1011.24
2023-06-30T00:04:23.507Z,1011.26
2023-06-30T00:05:23.355Z,1011.23
2023-06-30T00:06:23.356Z,1011.18
2023-06-30T00:07:23.354Z,1011.19
2023-06-30T00:08:23.392Z,1011.12
2023-06-30T00:09:23.285Z,1011.12
2023-06-30T00:10:23.288Z,1011.12
2023-06-30T00:11:23.231Z,1011.12
2023-06-30T00:12:23.215Z,1011.14
2023-06-30T00:13:23.182Z,1011.12
2023-06-30T00:14:23.215Z,1011.12
2023-06-30T00:15:23.143Z,1011.14
2023-06-30T00:16:23.318Z,1011.12
2023-06-30T00:17:23.661Z,1011.12
2023-06-30T00:18:23.083Z,1011.10
2023-06-30T00:19:23.149Z,1011.10
2023-06-30T00:20:23.045Z,1011.08
2023-06-30T00:21:23.066Z,1011.06
2023-06-30T00:22:23.033Z,1011.07
2023-06-30T00:23:22.993Z,1011.06
2023-06-30T00:24:22.970Z,1011.06
2023-06-30T00:25:22.989Z,1011.03
2023-06-30T00:26:22.924Z,1011.03
2023-06-30T00:27:23.015Z,1011.00
2023-06-30T00:28:22.880Z,1010.98
2023-06-30T00:29:22.864Z,1011.01
2023-06-30T00:30:22.939Z,1011.02
2023-06-30T00:31:22.845Z,1011.04
2023-06-30T00:32:22.862Z,1011.05
2023-06-30T00:33:22.790Z,1011.06
2023-06-30T00:34:22.859Z,1011.08
2023-06-30T00:35:22.731Z,1011.09
2023-06-30T00:36:22.770Z,1011.08
2023-06-30T00:37:22.689Z,1011.05
2023-06-30T00:38:22.797Z,1011.06
2023-06-30T00:39:22.656Z,1011.06
2023-06-30T00:40:22.640Z,1011.06
2023-06-30T00:41:22.620Z,1011.03
2023-06-30T00:42:22.610Z,1011.04
2023-06-30T00:43:22.586Z,1011.04
2023-06-30T00:44:22.614Z,1011.07
2023-06-30T00:45:22.523Z,1011.04
2023-06-30T00:46:22.506Z,1011.01
2023-06-30T00:47:22.534Z,1011.02
2023-06-30T00:48:22.541Z,1010.99
2023-06-30T00:49:22.457Z,1010.99
2023-06-30T00:50:22.460Z,1010.99
2023-06-30T00:51:22.402Z,1011.01
2023-06-30T00:52:22.381Z,1010.98
2023-06-30T00:53:22.392Z,1011.02
2023-06-30T00:54:22.347Z,1011.01
2023-06-30T00:55:22.389Z,1011.01
2023-06-30T00:56:22.300Z,1011.02
2023-06-30T00:57:22.299Z,1011.03
2023-06-30T00:58:22.254Z,1011.04
2023-06-30T00:59:22.311Z,1011.03
2023-06-30T01:00:22.220Z,1011.03
2023-06-30T01:01:22.297Z,1011.02
2023-06-30T01:02:22.208Z,1011.00
2023-06-30T01:03:22.237Z,1011.04
2023-06-30T01:04:22.188Z,1011.03
2023-06-30T01:05:22.157Z,1010.99
2023-06-30T01:06:22.092Z,1011.02
2023-06-30T01:07:22.214Z,1010.97
2023-06-30T01:08:22.048Z,1010.99
2023-06-30T01:09:22.029Z,1011.01
2023-06-30T01:10:22.092Z,1010.97
2023-06-30T01:11:21.991Z,1011.01
2023-06-30T01:12:22.010Z,1011.01
2023-06-30T01:13:21.941Z,1011.00
2023-06-30T01:14:21.944Z,1010.98
2023-06-30T01:15:21.903Z,1011.02
2023-06-30T01:16:21.968Z,1011.06
2023-06-30T01:17:21.933Z,1011.04
2023-06-30T01:18:21.948Z,1011.01
2023-06-30T01:19:21.845Z,1011.03
2023-06-30T01:20:21.819Z,1011.04
2023-06-30T01:21:21.799Z,1011.01
2023-06-30T01:22:21.773Z,1011.03
2023-06-30T01:23:21.740Z,1011.02
2023-06-30T01:24:21.785Z,1011.02
2023-06-30T01:25:21.695Z,1011.01
2023-06-30T01:26:21.739Z,1011.03
2023-06-30T01:27:21.714Z,1011.00
2023-06-30T01:28:21.672Z,1010.98
2023-06-30T01:29:21.775Z,1010.98
2023-06-30T01:30:21.607Z,1010.96
2023-06-30T01:31:21.643Z,1010.93
2023-06-30T01:32:21.626Z,1010.92
2023-06-30T01:33:21.544Z,1010.92
2023-06-30T01:34:21.521Z,1010.94
2023-06-30T01:35:21.560Z,1010.91
2023-06-30T01:36:21.487Z,1010.88
2023-06-30T01:37:21.444Z,1010.87
2023-06-30T01:38:21.493Z,1010.81
2023-06-30T01:39:21.414Z,1010.79
2023-06-30T01:40:21.490Z,1010.77
2023-06-30T01:41:21.380Z,1010.79
2023-06-30T01:42:21.406Z,1010.76
2023-06-30T01:43:21.367Z,1010.80
2023-06-30T01:44:21.418Z,1010.83
2023-06-30T01:45:21.280Z,1010.77
2023-06-30T01:46:21.396Z,1010.74
2023-06-30T01:47:21.267Z,1010.68
2023-06-30T01:48:21.220Z,1010.71
2023-06-30T01:49:21.218Z,1010.67
2023-06-30T01:50:21.271Z,1010.64
2023-06-30T01:51:21.164Z,1010.65
2023-06-30T01:52:21.187Z,1010.62
2023-06-30T01:53:21.116Z,1010.63
2023-06-30T01:54:21.105Z,1010.60
2023-06-30T01:55:21.093Z,1010.67
2023-06-30T01:56:21.067Z,1010.72
2023-06-30T01:57:21.103Z,1010.74
2023-06-30T01:58:21.007Z,1010.71
2023-06-30T01:59:28.194Z,1010.73
2023-06-30T02:01:25.008Z,1010.79
2023-06-30T02:02:24.959Z,1010.76
2023-06-30T02:04:28.912Z,1010.79
2023-06-30T02:05:28.878Z,1010.80
2023-06-30T02:07:32.946Z,1010.82
2023-06-30T02:08:32.797Z,1010.81
2023-06-30T02:10:36.776Z,1010.83
2023-06-30T02:11:36.724Z,1010.86
2023-06-30T02:13:41.559Z,1010.86
2023-06-30T02:14:41.525Z,1010.88
2023-06-30T02:16:45.582Z,1010.84
2023-06-30T02:17:45.520Z,1010.87
2023-06-30T02:19:49.422Z,1010.99
2023-06-30T02:20:49.376Z,1011.03
2023-06-30T02:22:53.372Z,1011.06
2023-06-30T02:23:53.332Z,1011.09
2023-06-30T02:25:46.487Z,1011.11
2023-06-30T02:26:46.179Z,1011.13
2023-06-30T02:28:50.156Z,1011.08
2023-06-30T02:29:50.106Z,1011.08
2023-06-30T02:31:54.112Z,1011.12
2023-06-30T02:32:54.043Z,1011.10
2023-06-30T02:34:58.071Z,1011.14
2023-06-30T02:35:57.999Z,1011.17
2023-06-30T02:38:01.982Z,1011.16
2023-06-30T02:39:01.941Z,1011.12
2023-06-30T02:41:06.764Z,1011.12
2023-06-30T02:42:06.725Z,1011.10
2023-06-30T02:44:10.684Z,1011.14
2023-06-30T02:45:10.648Z,1011.16
2023-06-30T02:47:14.634Z,1011.15
2023-06-30T02:48:14.614Z,1011.19
2023-06-30T02:50:19.413Z,1011.14
2023-06-30T02:51:19.354Z,1011.14
2023-06-30T02:53:23.342Z,1011.13
2023-06-30T02:54:23.307Z,1011.12
2023-06-30T02:56:27.276Z,1011.16
2023-06-30T02:57:27.234Z,1011.17
2023-06-30T02:59:31.219Z,1011.20
2023-06-30T03:00:31.168Z,1011.21
2023-06-30T03:02:35.378Z,1011.23
2023-06-30T03:03:35.146Z,1011.18
2023-06-30T03:05:28.013Z,1011.21
2023-06-30T03:06:27.974Z,1011.17
2023-06-30T03:08:31.936Z,1011.17
2023-06-30T03:09:31.894Z,1011.14
2023-06-30T03:11:35.892Z,1011.17
2023-06-30T03:12:35.837Z,1011.14
2023-06-30T03:14:40.661Z,1011.18
2023-06-30T03:15:40.617Z,1011.13
2023-06-30T03:17:44.711Z,1011.12
2023-06-30T03:18:44.564Z,1011.10
2023-06-30T03:20:48.525Z,1011.11
2023-06-30T03:21:48.498Z,1011.13
2023-06-30T03:23:52.475Z,1011.06
2023-06-30T03:24:52.417Z,1011.06
2023-06-30T03:26:56.413Z,1011.08
2023-06-30T03:27:56.355Z,1011.06
2023-06-30T03:30:00.345Z,1011.01
2023-06-30T03:31:00.311Z,1010.99
2023-06-30T03:33:04.306Z,1011.05
2023-06-30T03:34:04.225Z,1011.04
2023-06-30T03:35:57.113Z,1011.05
2023-06-30T03:36:57.091Z,1011.03
2023-06-30T03:39:01.054Z,1011.01
2023-06-30T03:40:01.035Z,1010.99
2023-06-30T03:42:05.841Z,1010.96
2023-06-30T03:43:05.797Z,1010.92
2023-06-30T03:45:09.764Z,1010.90
2023-06-30T03:46:09.771Z,1010.88
2023-06-30T03:48:13.710Z,1010.90
2023-06-30T03:49:13.665Z,1010.88
2023-06-30T03:51:17.639Z,1010.95
2023-06-30T03:52:17.591Z,1011.01
2023-06-30T03:54:21.577Z,1011.03
2023-06-30T03:55:21.540Z,1011.02
2023-06-30T03:57:25.524Z,1011.03
2023-06-30T03:58:25.460Z,1011.07
2023-06-30T04:00:29.449Z,1011.07
2023-06-30T04:01:29.404Z,1011.05
2023-06-30T04:03:33.466Z,1011.03
2023-06-30T04:04:33.497Z,1011.06
2023-06-30T04:06:37.336Z,1011.09
2023-06-30T04:07:37.370Z,1011.01
2023-06-30T04:09:41.243Z,1011.08
2023-06-30T04:10:41.202Z,1011.08
2023-06-30T04:12:45.193Z,1011.12
2023-06-30T04:13:45.150Z,1011.15
2023-06-30T04:15:38.072Z,1011.17
2023-06-30T04:16:38.046Z,1011.24
2023-06-30T04:18:41.994Z,1011.28
2023-06-30T04:19:41.935Z,1011.29
2023-06-30T04:21:45.913Z,1011.28
2023-06-30T04:22:45.883Z,1011.28
2023-06-30T04:24:49.879Z,1011.20
2023-06-30T04:25:49.801Z,1011.21
2023-06-30T04:27:53.782Z,1011.18
2023-06-30T04:28:53.753Z,1011.14
2023-06-30T04:30:57.731Z,1011.13
2023-06-30T04:31:57.716Z,1011.10
2023-06-30T04:34:01.667Z,1011.10
2023-06-30T04:35:01.610Z,1011.09
2023-06-30T04:37:06.450Z,1011.11
2023-06-30T04:38:06.398Z,1011.13
2023-06-30T04:40:10.396Z,1011.13
2023-06-30T04:41:10.336Z,1011.19
2023-06-30T04:43:14.328Z,1011.13
2023-06-30T04:44:14.289Z,1011.08
2023-06-30T04:46:07.280Z,1011.11
2023-06-30T04:47:07.162Z,1011.13
2023-06-30T04:49:11.132Z,1011.16
2023-06-30T04:50:11.089Z,1011.16
2023-06-30T04:52:15.071Z,1011.18
2023-06-30T04:53:15.012Z,1011.20
2023-06-30T04:54:15.015Z,1011.19
2023-06-30T04:55:14.975Z,1011.21
2023-06-30T04:56:14.983Z,1011.22
2023-06-30T04:57:14.949Z,1011.17
2023-06-30T04:58:14.918Z,1011.14
2023-06-30T04:59:14.907Z,1011.15
2023-06-30T05:00:14.892Z,1011.14
2023-06-30T05:01:14.899Z,1011.10
2023-06-30T05:02:14.830Z,1011.11
2023-06-30T05:03:14.848Z,1011.11
2023-06-30T05:04:14.798Z,1011.16
2023-06-30T05:05:14.758Z,1011.17
2023-06-30T05:06:14.760Z,1011.18
2023-06-30T05:07:14.760Z,1011.18
2023-06-30T05:08:14.712Z,1011.14
2023-06-30T05:09:14.685Z,1011.15
2023-06-30T05:10:14.672Z,1011.15
2023-06-30T05:11:14.653Z,1011.15
2023-06-30T05:12:14.624Z,1011.13
2023-06-30T05:13:14.588Z,1011.12
2023-06-30T05:14:14.577Z,1011.13
2023-06-30T05:15:14.578Z,1011.17
2023-06-30T05:16:14.579Z,1011.20
2023-06-30T05:17:14.580Z,1011.25
2023-06-30T05:18:14.538Z,1011.27
2023-06-30T05:19:14.472Z,1011.30
2023-06-30T05:20:14.448Z,1011.33
2023-06-30T05:21:14.422Z,1011.31
2023-06-30T05:22:14.400Z,1011.32
2023-06-30T05:23:14.391Z,1011.29
2023-06-30T05:24:14.363Z,1011.32
2023-06-30T05:25:14.332Z,1011.32
2023-06-30T05:26:14.313Z,1011.29
2023-06-30T05:27:14.341Z,1011.29
2023-06-30T05:28:14.286Z,1011.28
2023-06-30T05:29:15.638Z,1011.31
2023-06-30T05:30:14.264Z,1011.27
2023-06-30T05:31:14.250Z,1011.33
2023-06-30T05:32:14.292Z,1011.33
2023-06-30T05:33:14.156Z,1011.33
2023-06-30T05:34:14.228Z,1011.32
2023-06-30T05:35:14.119Z,1011.29
2023-06-30T05:36:14.198Z,1011.28
2023-06-30T05:37:14.128Z,1011.27
2023-06-30T05:38:14.141Z,1011.33
2023-06-30T05:39:14.041Z,1011.34
2023-06-30T05:40:14.021Z,1011.27
2023-06-30T05:41:13.994Z,1011.23
2023-06-30T05:42:13.979Z,1011.24
2023-06-30T05:43:13.948Z,1011.26
2023-06-30T05:44:14.094Z,1011.28
2023-06-30T05:45:13.914Z,1011.28
2023-06-30T05:46:13.998Z,1011.29
2023-06-30T05:47:13.867Z,1011.30
2023-06-30T05:48:13.857Z,1011.28
2023-06-30T05:49:13.822Z,1011.31
2023-06-30T05:50:13.907Z,1011.30
2023-06-30T05:51:13.780Z,1011.31
2023-06-30T05:52:13.809Z,1011.29
2023-06-30T05:53:13.733Z,1011.34
2023-06-30T05:54:13.738Z,1011.34
2023-06-30T05:55:13.748Z,1011.29
2023-06-30T05:56:13.669Z,1011.30
2023-06-30T05:57:13.756Z,1011.29
2023-06-30T05:58:13.631Z,1011.31
2023-06-30T05:59:13.604Z,1011.25
2023-06-30T06:00:13.594Z,1011.29
2023-06-30T06:01:13.666Z,1011.30
2023-06-30T06:02:13.586Z,1011.29
2023-06-30T06:03:13.866Z,1011.29
2023-06-30T06:04:13.623Z,1011.32
2023-06-30T06:05:13.734Z,1011.33
2023-06-30T06:06:13.500Z,1011.35
2023-06-30T06:07:13.471Z,1011.41
2023-06-30T06:08:13.535Z,1011.36
2023-06-30T06:09:13.417Z,1011.35
2023-06-30T06:10:13.424Z,1011.35
2023-06-30T06:11:13.386Z,1011.36
2023-06-30T06:12:13.444Z,1011.35
2023-06-30T06:13:13.370Z,1011.34
2023-06-30T06:14:13.366Z,1011.34
2023-06-30T06:15:13.270Z,1011.36
2023-06-30T06:16:13.326Z,1011.35
2023-06-30T06:17:13.226Z,1011.39
2023-06-30T06:18:13.299Z,1011.36
2023-06-30T06:19:13.218Z,1011.40
2023-06-30T06:20:13.190Z,1011.45
2023-06-30T06:21:13.163Z,1011.42
2023-06-30T06:22:13.130Z,1011.39
2023-06-30T06:23:13.106Z,1011.39
2023-06-30T06:24:13.116Z,1011.43
2023-06-30T06:25:13.075Z,1011.44
2023-06-30T06:26:13.144Z,1011.43
2023-06-30T06:27:13.028Z,1011.46
2023-06-30T06:28:13.106Z,1011.49
2023-06-30T06:29:13.050Z,1011.49
2023-06-30T06:30:12.990Z,1011.50
2023-06-30T06:31:13.014Z,1011.52
2023-06-30T06:32:12.914Z,1011.53
2023-06-30T06:33:12.989Z,1011.55
2023-06-30T06:34:12.896Z,1011.55
2023-06-30T06:35:12.899Z,1011.58
2023-06-30T06:36:12.839Z,1011.59
2023-06-30T06:37:12.911Z,1011.59
2023-06-30T06:38:12.791Z,1011.58
2023-06-30T06:39:12.843Z,1011.61
2023-06-30T06:40:12.757Z,1011.60
2023-06-30T06:41:12.828Z,1011.63
2023-06-30T06:42:12.703Z,1011.67
2023-06-30T06:43:13.766Z,1011.62
2023-06-30T06:44:12.677Z,1011.64
2023-06-30T06:45:12.665Z,1011.67
2023-06-30T06:46:12.653Z,1011.62
2023-06-30T06:47:12.754Z,1011.65
2023-06-30T06:48:12.586Z,1011.57
2023-06-30T06:49:12.685Z,1011.60
2023-06-30T06:50:12.545Z,1011.53
2023-06-30T06:51:12.527Z,1011.55
2023-06-30T06:52:12.504Z,1011.53
2023-06-30T06:53:12.528Z,1011.57
2023-06-30T06:54:12.578Z,1011.55
2023-06-30T06:55:12.535Z,1011.55
2023-06-30T06:56:12.427Z,1011.54
2023-06-30T06:57:12.408Z,1011.58
2023-06-30T06:58:12.613Z,1011.61
2023-06-30T06:59:12.463Z,1011.60
2023-06-30T07:00:12.336Z,1011.55
2023-06-30T07:01:12.358Z,1011.54
2023-06-30T07:02:12.386Z,1011.52
2023-06-30T07:03:12.294Z,1011.52
2023-06-30T07:04:12.368Z,1011.52
2023-06-30T07:05:12.236Z,1011.58
2023-06-30T07:06:12.306Z,1011.53
2023-06-30T07:07:12.272Z,1011.54
2023-06-30T07:08:12.207Z,1011.53
2023-06-30T07:09:12.176Z,1011.54
2023-06-30T07:10:12.229Z,1011.56
2023-06-30T07:11:12.152Z,1011.61
2023-06-30T07:12:12.285Z,1011.55
2023-06-30T07:13:12.062Z,1011.58
2023-06-30T07:14:12.145Z,1011.61
2023-06-30T07:15:12.023Z,1011.57
2023-06-30T07:16:12.125Z,1011.57
2023-06-30T07:17:11.978Z,1011.55
2023-06-30T07:18:12.062Z,1011.61
2023-06-30T07:19:11.953Z,1011.61
2023-06-30T07:20:11.934Z,1011.59
2023-06-30T07:21:11.904Z,1011.63
2023-06-30T07:22:11.905Z,1011.66
2023-06-30T07:23:11.860Z,1011.68
2023-06-30T07:24:11.926Z,1011.66
2023-06-30T07:25:11.813Z,1011.72
2023-06-30T07:26:11.790Z,1011.72
2023-06-30T07:27:11.781Z,1011.73
2023-06-30T07:28:11.875Z,1011.71
2023-06-30T07:29:11.738Z,1011.72
2023-06-30T07:30:11.762Z,1011.73
2023-06-30T07:31:11.753Z,1011.70
2023-06-30T07:32:11.682Z,1011.75
2023-06-30T07:33:11.731Z,1011.80
2023-06-30T07:34:11.640Z,1011.78
2023-06-30T07:35:11.683Z,1011.79
2023-06-30T07:36:11.584Z,1011.76
2023-06-30T07:37:11.625Z,1011.79
2023-06-30T07:38:11.544Z,1011.78
2023-06-30T07:39:12.662Z,1011.71
2023-06-30T07:40:16.548Z,1011.72
2023-06-30T07:41:12.586Z,1011.72
2023-06-30T07:42:11.459Z,1011.70
2023-06-30T07:43:11.459Z,1011.79
2023-06-30T07:44:11.427Z,1011.82
2023-06-30T07:45:11.456Z,1011.75
2023-06-30T07:46:11.418Z,1011.83
2023-06-30T07:47:11.475Z,1011.76
2023-06-30T07:48:11.469Z,1011.77
2023-06-30T07:49:11.318Z,1011.82
2023-06-30T07:50:11.295Z,1011.75
2023-06-30T07:51:11.390Z,1011.75
2023-06-30T07:52:11.256Z,1011.78
2023-06-30T07:53:11.314Z,1011.73
2023-06-30T07:54:11.225Z,1011.79
2023-06-30T07:55:11.209Z,1011.74
2023-06-30T07:56:11.189Z,1011.76
2023-06-30T07:57:11.225Z,1011.76
2023-06-30T07:58:11.145Z,1011.74
2023-06-30T07:59:11.252Z,1011.80
2023-06-30T08:00:18.480Z,1011.79
2023-06-30T08:02:15.219Z,1011.79
2023-06-30T08:03:15.275Z,1011.77
2023-06-30T08:05:19.327Z,1011.80
2023-06-30T08:06:19.269Z,1011.83
2023-06-30T08:08:23.236Z,1011.85
2023-06-30T08:09:23.167Z,1011.85
2023-06-30T08:11:27.247Z,1011.87
2023-06-30T08:12:27.175Z,1011.89
2023-06-30T08:14:31.273Z,1011.88
2023-06-30T08:15:31.202Z,1011.86
2023-06-30T08:17:51.335Z,1011.85
2023-06-30T08:18:35.291Z,1011.83
2023-06-30T08:20:39.304Z,1011.81
2023-06-30T08:21:39.241Z,1011.84
2023-06-30T08:23:43.283Z,1011.82
2023-06-30T08:24:43.239Z,1011.80
2023-06-30T08:26:47.328Z,1011.80
2023-06-30T08:27:47.256Z,1011.74
2023-06-30T08:29:51.362Z,1011.72
2023-06-30T08:30:51.300Z,1011.68
2023-06-30T08:32:55.964Z,1011.77
2023-06-30T08:33:55.298Z,1011.76
2023-06-30T08:35:48.313Z,1011.72
2023-06-30T08:36:48.245Z,1011.76
2023-06-30T08:38:52.336Z,1011.73
2023-06-30T08:39:52.255Z,1011.70
2023-06-30T08:41:56.348Z,1011.66
2023-06-30T08:42:56.309Z,1011.67
2023-06-30T08:45:00.379Z,1011.70
2023-06-30T08:46:00.286Z,1011.73
2023-06-30T08:48:04.428Z,1011.73
2023-06-30T08:49:04.316Z,1011.65
2023-06-30T08:51:08.406Z,1011.67
2023-06-30T08:52:08.321Z,1011.65
2023-06-30T08:54:12.448Z,1011.66
2023-06-30T08:55:12.339Z,1011.65
2023-06-30T08:57:16.480Z,1011.60
2023-06-30T08:58:25.225Z,1011.65
2023-06-30T09:00:20.516Z,1011.64
2023-06-30T09:01:20.519Z,1011.64
2023-06-30T09:03:24.535Z,1011.64
2023-06-30T09:04:24.417Z,1011.63
2023-06-30T09:06:28.485Z,1011.56
2023-06-30T09:07:28.446Z,1011.70
2023-06-30T09:09:32.493Z,1011.65
2023-06-30T09:10:32.429Z,1011.68
2023-06-30T09:12:36.526Z,1011.67
2023-06-30T09:13:36.452Z,1011.69
2023-06-30T09:15:29.445Z,1011.66
2023-06-30T09:16:29.415Z,1011.64
2023-06-30T09:18:33.508Z,1011.59
2023-06-30T09:19:33.409Z,1011.55
2023-06-30T09:21:37.508Z,1011.53
2023-06-30T09:22:53.174Z,1011.55
2023-06-30T09:24:42.020Z,1011.51
2023-06-30T09:25:42.027Z,1011.52
2023-06-30T09:27:46.046Z,1011.56
2023-06-30T09:28:45.992Z,1011.59
2023-06-30T09:30:50.071Z,1011.48
2023-06-30T09:31:50.081Z,1011.53
2023-06-30T09:33:54.083Z,1011.50
2023-06-30T09:34:53.998Z,1011.50
2023-06-30T09:36:58.095Z,1011.53
2023-06-30T09:37:58.023Z,1011.54
2023-06-30T09:40:02.109Z,1011.48
2023-06-30T09:41:02.020Z,1011.56
2023-06-30T09:43:06.126Z,1011.47
2023-06-30T09:44:06.057Z,1011.45
2023-06-30T09:45:59.192Z,1011.47
2023-06-30T09:46:59.011Z,1011.48
2023-06-30T09:49:03.097Z,1011.40
2023-06-30T09:50:03.114Z,1011.43
2023-06-30T09:52:07.110Z,1011.41
2023-06-30T09:53:07.045Z,1011.41
2023-06-30T09:55:11.110Z,1011.35
2023-06-30T09:56:11.084Z,1011.40
2023-06-30T09:58:15.136Z,1011.40
2023-06-30T09:59:15.078Z,1011.35
2023-06-30T10:01:19.190Z,1011.34
2023-06-30T10:02:19.120Z,1011.31
2023-06-30T10:04:23.169Z,1011.28
2023-06-30T10:05:23.089Z,1011.35
2023-06-30T10:07:27.226Z,1011.36
2023-06-30T10:08:27.113Z,1011.36
2023-06-30T10:10:31.206Z,1011.37
2023-06-30T10:11:31.138Z,1011.29
2023-06-30T10:13:35.209Z,1011.36
2023-06-30T10:14:35.137Z,1011.34
2023-06-30T10:16:39.221Z,1011.35
2023-06-30T10:17:39.331Z,1011.39
2023-06-30T10:19:43.247Z,1011.39
2023-06-30T10:20:49.182Z,1011.38
2023-06-30T10:22:47.408Z,1011.35
2023-06-30T10:23:47.241Z,1011.42
2023-06-30T10:24:47.275Z,1011.41
2023-06-30T10:25:47.417Z,1011.34
2023-06-30T10:26:47.296Z,1011.36
2023-06-30T10:27:47.168Z,1011.32
2023-06-30T10:28:47.249Z,1011.30
2023-06-30T10:29:47.144Z,1011.34
2023-06-30T10:30:47.113Z,1011.27
2023-06-30T10:31:47.136Z,1011.30
2023-06-30T10:32:47.250Z,1011.29
2023-06-30T10:33:47.136Z,1011.34
2023-06-30T10:34:47.148Z,1011.30
2023-06-30T10:35:47.330Z,1011.31
2023-06-30T10:36:47.025Z,1011.34
2023-06-30T10:37:47.063Z,1011.33
2023-06-30T10:38:46.994Z,1011.31
2023-06-30T10:39:47.088Z,1011.26
2023-06-30T10:40:46.950Z,1011.26
2023-06-30T10:41:46.951Z,1011.23
2023-06-30T10:42:46.916Z,1011.23
2023-06-30T10:43:47.008Z,1011.25
2023-06-30T10:44:46.906Z,1011.18
2023-06-30T10:45:47.023Z,1011.18
2023-06-30T10:46:46.909Z,1011.18
2023-06-30T10:47:46.963Z,1011.14
2023-06-30T10:48:46.849Z,1011.14
2023-06-30T10:49:46.844Z,1011.19
2023-06-30T10:50:46.790Z,1011.13
2023-06-30T10:51:46.886Z,1011.14
2023-06-30T10:52:46.767Z,1011.09
2023-06-30T10:53:46.774Z,1011.13
2023-06-30T10:54:46.849Z,1011.12
2023-06-30T10:55:47.255Z,1011.07
2023-06-30T10:56:46.807Z,1011.11
2023-06-30T10:57:46.696Z,1011.09
2023-06-30T10:58:46.701Z,1011.09
2023-06-30T10:59:46.661Z,1011.09
2023-06-30T11:00:46.654Z,1011.16
2023-06-30T11:01:46.728Z,1011.10
2023-06-30T11:02:46.720Z,1011.05
2023-06-30T11:03:46.756Z,1011.07
2023-06-30T11:04:46.713Z,1011.06
2023-06-30T11:05:46.862Z,1011.18
2023-06-30T11:06:46.564Z,1011.07
2023-06-30T11:07:46.577Z,1011.08
2023-06-30T11:08:46.539Z,1011.12
2023-06-30T11:09:46.576Z,1011.20
2023-06-30T11:10:46.480Z,1011.19
2023-06-30T11:11:46.489Z,1011.18
2023-06-30T11:12:46.447Z,1011.11
2023-06-30T11:13:46.516Z,1011.07
2023-06-30T11:14:46.416Z,1011.06
2023-06-30T11:15:47.340Z,1010.94
2023-06-30T11:16:46.404Z,1010.90
2023-06-30T11:17:46.514Z,1010.96
2023-06-30T11:18:46.483Z,1010.98
2023-06-30T11:19:46.513Z,1010.96
2023-06-30T11:20:46.339Z,1010.98
2023-06-30T11:21:46.356Z,1010.98
2023-06-30T11:22:46.307Z,1011.08
2023-06-30T11:23:46.383Z,1011.10
2023-06-30T11:24:46.262Z,1011.08
2023-06-30T11:25:46.285Z,1011.07
2023-06-30T11:26:46.234Z,1010.94
2023-06-30T11:27:46.313Z,1010.94
2023-06-30T11:28:46.238Z,1010.93
2023-06-30T11:29:46.245Z,1010.92
2023-06-30T11:30:46.187Z,1010.92
2023-06-30T11:31:46.219Z,1010.94
2023-06-30T11:32:46.156Z,1010.92
2023-06-30T11:33:46.252Z,1010.89
2023-06-30T11:34:46.112Z,1010.93
2023-06-30T11:35:46.267Z,1010.95
2023-06-30T11:36:46.168Z,1010.99
2023-06-30T11:37:46.064Z,1010.95
2023-06-30T11:38:46.182Z,1011.02
2023-06-30T11:39:46.037Z,1011.02
2023-06-30T11:40:46.091Z,1010.96
2023-06-30T11:41:46.003Z,1010.98
2023-06-30T11:42:46.096Z,1010.97
2023-06-30T11:43:45.992Z,1010.96
2023-06-30T11:44:46.012Z,1010.97
2023-06-30T11:45:46.206Z,1010.94
2023-06-30T11:46:46.059Z,1010.96
2023-06-30T11:47:45.964Z,1011.02
2023-06-30T11:48:45.976Z,1011.05
2023-06-30T11:49:45.915Z,1010.93
2023-06-30T11:50:47.188Z,1010.94
2023-06-30T11:51:45.855Z,1010.97
2023-06-30T11:52:45.858Z,1010.98
2023-06-30T11:53:45.842Z,1011.01
2023-06-30T11:54:45.876Z,1010.98
2023-06-30T11:55:46.177Z,1010.98
2023-06-30T11:56:45.832Z,1010.98
2023-06-30T11:57:45.783Z,1011.05
2023-06-30T11:58:45.751Z,1011.08
2023-06-30T11:59:45.736Z,1010.95
2023-06-30T12:00:46.213Z,1010.97
2023-06-30T12:01:45.698Z,1010.95
2023-06-30T12:02:48.492Z,1010.96
2023-06-30T12:03:46.080Z,1011.04
2023-06-30T12:04:45.806Z,1010.96
2023-06-30T12:05:46.027Z,1010.98
2023-06-30T12:06:45.643Z,1010.98
2023-06-30T12:07:45.676Z,1011.05
2023-06-30T12:08:45.603Z,1011.09
2023-06-30T12:09:45.688Z,1011.06
2023-06-30T12:10:45.887Z,1011.06
2023-06-30T12:11:45.593Z,1011.09
2023-06-30T12:12:45.529Z,1011.06
2023-06-30T12:13:45.607Z,1010.95
2023-06-30T12:14:45.502Z,1010.91
2023-06-30T12:15:45.742Z,1010.97
2023-06-30T12:16:46.396Z,1011.06
2023-06-30T12:17:45.547Z,1011.03
2023-06-30T12:18:45.470Z,1010.98
2023-06-30T12:19:45.451Z,1010.98
2023-06-30T12:20:45.423Z,1010.99
2023-06-30T12:21:45.416Z,1010.88
2023-06-30T12:22:45.381Z,1010.90
2023-06-30T12:23:45.478Z,1010.93
2023-06-30T12:24:45.356Z,1010.95
2023-06-30T12:25:45.722Z,1010.92
2023-06-30T12:26:45.323Z,1010.92
2023-06-30T12:27:45.412Z,1010.81
2023-06-30T12:28:45.384Z,1010.84
2023-06-30T12:29:45.319Z,1010.85
2023-06-30T12:30:45.589Z,1010.79
2023-06-30T12:31:45.352Z,1010.91
2023-06-30T12:32:45.351Z,1010.85
2023-06-30T12:33:45.253Z,1010.84
2023-06-30T12:34:45.279Z,1010.83
2023-06-30T12:35:45.421Z,1010.88
2023-06-30T12:36:45.262Z,1010.84
2023-06-30T12:37:45.178Z,1010.80
2023-06-30T12:38:45.295Z,1010.77
2023-06-30T12:39:45.184Z,1010.81
2023-06-30T12:40:45.399Z,1010.84
2023-06-30T12:41:45.120Z,1010.74
2023-06-30T12:42:45.204Z,1010.75
2023-06-30T12:43:45.442Z,1010.74
2023-06-30T12:44:45.065Z,1010.78
2023-06-30T12:45:45.125Z,1010.78
2023-06-30T12:46:45.344Z,1010.78
2023-06-30T12:47:45.189Z,1010.65
2023-06-30T12:48:45.036Z,1010.66
2023-06-30T12:49:44.996Z,1010.65
2023-06-30T12:50:45.312Z,1010.71
2023-06-30T12:51:44.969Z,1010.76
2023-06-30T12:52:44.994Z,1010.74
2023-06-30T12:53:44.951Z,1010.73
2023-06-30T12:54:44.968Z,1010.72
2023-06-30T12:55:44.923Z,1010.77
2023-06-30T12:56:44.999Z,1010.75
2023-06-30T12:57:44.884Z,1010.71
2023-06-30T12:58:44.905Z,1010.71
2023-06-30T12:59:44.860Z,1010.65
2023-06-30T13:00:45.084Z,1010.68
2023-06-30T13:01:44.985Z,1010.60
2023-06-30T13:02:44.915Z,1010.58
2023-06-30T13:03:44.914Z,1010.57
2023-06-30T13:04:44.788Z,1010.58
2023-06-30T13:05:44.871Z,1010.51
2023-06-30T13:06:44.862Z,1010.54
2023-06-30T13:07:44.764Z,1010.56
2023-06-30T13:08:44.774Z,1010.52
2023-06-30T13:09:44.714Z,1010.50
2023-06-30T13:10:45.170Z,1010.50
2023-06-30T13:11:44.689Z,1010.47
2023-06-30T13:12:44.709Z,1010.54
2023-06-30T13:13:44.669Z,1010.47
2023-06-30T13:14:44.711Z,1010.47
2023-06-30T13:15:45.065Z,1010.41
2023-06-30T13:16:44.802Z,1010.46
2023-06-30T13:17:44.743Z,1010.39
2023-06-30T13:18:44.601Z,1010.40
2023-06-30T13:19:44.662Z,1010.41
2023-06-30T13:20:44.588Z,1010.39
2023-06-30T13:21:44.662Z,1010.34
2023-06-30T13:22:56.272Z,1010.34
2023-06-30T13:23:44.536Z,1010.29
2023-06-30T13:24:44.551Z,1010.27
2023-06-30T13:25:45.098Z,1010.34
2023-06-30T13:26:44.479Z,1010.31
2023-06-30T13:27:44.505Z,1010.31
2023-06-30T13:28:44.464Z,1010.30
2023-06-30T13:29:44.453Z,1010.30
2023-06-30T13:30:44.772Z,1010.30
2023-06-30T13:31:44.442Z,1010.17
2023-06-30T13:32:44.487Z,1010.25
2023-06-30T13:33:44.422Z,1010.27
2023-06-30T13:34:44.457Z,1010.26
2023-06-30T13:35:44.558Z,1010.27
2023-06-30T13:36:44.373Z,1010.28
2023-06-30T13:37:44.380Z,1010.26
2023-06-30T13:38:44.423Z,1010.22
2023-06-30T13:39:44.405Z,1010.17
2023-06-30T13:40:44.450Z,1010.17
2023-06-30T13:41:44.278Z,1010.17
2023-06-30T13:42:44.337Z,1010.16
2023-06-30T13:43:44.278Z,1010.16
2023-06-30T13:44:44.323Z,1010.12
2023-06-30T13:45:44.556Z,1010.17
2023-06-30T13:46:44.211Z,1010.23
2023-06-30T13:47:44.256Z,1010.23
2023-06-30T13:48:44.246Z,1010.18
2023-06-30T13:49:44.163Z,1010.17
2023-06-30T13:50:44.316Z,1010.11
2023-06-30T13:51:44.155Z,1010.17
2023-06-30T13:52:44.136Z,1010.13
2023-06-30T13:53:44.195Z,1010.17
2023-06-30T13:54:44.115Z,1010.10